createdAt,value
2019-02-15T00:00:44.690Z,98408.82
2019-02-15T00:03:13.524Z,98406.16
2019-02-15T00:06:01.335Z,98406.16
2019-02-15T00:08:49.177Z,98405.37
2019-02-15T00:11:17.843Z,98407.42
2019-02-15T00:14:05.717Z,98401.72
2019-02-15T00:16:53.600Z,98404.91
2019-02-15T00:22:49.865Z,98397.62
2019-02-15T00:25:18.559Z,98398.11
2019-02-15T00:27:47.247Z,98405.41
2019-02-15T00:30:35.196Z,98399.71
2019-02-15T00:33:23.059Z,98399.09
2019-02-15T00:35:51.765Z,98392.27
2019-02-15T00:38:39.605Z,98398.45
2019-02-15T00:41:08.212Z,98396.73
2019-02-15T00:43:55.996Z,98391.16
2019-02-15T00:46:43.790Z,98391.48
2019-02-15T00:52:26.206Z,98387.00
2019-02-15T01:00:45.287Z,98379.98
2019-02-15T01:06:27.825Z,98375.88
2019-02-15T01:09:15.585Z,98376.56
2019-02-15T01:12:03.405Z,98370.86
2019-02-15T01:14:32.090Z,98365.80
2019-02-15T01:17:19.891Z,98366.78
2019-02-15T01:20:07.720Z,98367.74
2019-02-15T01:22:36.417Z,98361.06
2019-02-15T01:28:34.089Z,98350.20
2019-02-15T01:34:35.900Z,98348.38
2019-02-15T01:40:32.050Z,98342.17
2019-02-15T01:43:21.565Z,98342.51
2019-02-15T01:46:09.324Z,98338.23
2019-02-15T01:48:57.211Z,98339.34
2019-02-15T01:51:25.861Z,98329.86
2019-02-15T01:53:54.463Z,98324.77
2019-02-15T01:56:23.187Z,98318.60
2019-02-15T01:59:11.116Z,98316.69
2019-02-15T02:01:59.049Z,98319.07
2019-02-15T02:04:46.880Z,98315.75
2019-02-15T02:07:34.835Z,98312.44
2019-02-15T02:13:11.692Z,98310.67
2019-02-15T02:15:59.581Z,98308.67
2019-02-15T02:18:47.408Z,98310.44
2019-02-15T02:21:35.189Z,98304.62
2019-02-15T02:24:03.807Z,98300.80
2019-02-15T02:26:32.498Z,98299.53
2019-02-15T02:29:01.203Z,98299.39
2019-02-15T02:31:29.890Z,98307.62
2019-02-15T02:33:58.479Z,98301.94
2019-02-15T02:36:47.030Z,98299.70
2019-02-15T02:39:34.963Z,98297.35
2019-02-15T02:42:22.848Z,98291.16
2019-02-15T02:44:51.345Z,98295.61
2019-02-15T02:47:39.212Z,98296.41
2019-02-15T02:50:47.636Z,98292.13
2019-02-15T02:53:35.525Z,98295.61
2019-02-15T02:56:23.344Z,98289.42
2019-02-15T02:59:11.094Z,98290.21
2019-02-15T03:01:58.962Z,98289.13
2019-02-15T03:04:46.729Z,98293.70
2019-02-15T03:07:15.365Z,98287.55
2019-02-15T03:09:44.126Z,98289.59
2019-02-15T03:12:31.835Z,98284.81
2019-02-15T03:15:19.751Z,98282.59
2019-02-15T03:18:07.573Z,98283.55
2019-02-15T03:20:55.460Z,98281.61
2019-02-15T03:23:23.978Z,98282.91
2019-02-15T03:26:11.839Z,98281.13
2019-02-15T03:28:59.605Z,98280.32
2019-02-15T03:31:47.460Z,98273.61
2019-02-15T03:34:36.434Z,98280.47
2019-02-15T03:37:43.899Z,98273.77
2019-02-15T03:40:31.689Z,98280.16
2019-02-15T03:43:19.627Z,98279.36
2019-02-15T03:46:07.487Z,98279.44
2019-02-15T03:48:36.103Z,98274.06
2019-02-15T03:51:04.773Z,98274.05
2019-02-15T03:53:33.410Z,98275.01
2019-02-15T03:56:02.077Z,98286.11
2019-02-15T03:58:30.710Z,98281.34
2019-02-15T04:01:18.594Z,98282.94
2019-02-15T04:04:06.489Z,98287.22
2019-02-15T04:06:54.353Z,98289.44
2019-02-15T04:09:42.177Z,98288.34
2019-02-15T04:12:32.172Z,98293.72
2019-02-15T04:15:00.472Z,98290.06
2019-02-15T04:17:30.789Z,98289.75
2019-02-15T04:20:18.663Z,98288.81
2019-02-15T04:23:06.421Z,98293.09
2019-02-15T04:25:54.459Z,98297.05
2019-02-15T04:28:42.291Z,98293.73
2019-02-15T04:31:30.104Z,98295.62
2019-02-15T04:34:17.813Z,98294.36
2019-02-15T04:37:05.625Z,98303.22
2019-02-15T04:39:34.225Z,98298.14
2019-02-15T04:42:21.988Z,98292.78
2019-02-15T04:45:09.854Z,98292.92
2019-02-15T04:47:57.742Z,98294.35
2019-02-15T04:50:45.507Z,98295.77
2019-02-15T04:53:33.431Z,98300.98
2019-02-15T04:56:21.373Z,98300.99
2019-02-15T04:59:09.300Z,98302.56
2019-02-15T05:01:57.163Z,98304.49
2019-02-15T05:04:45.015Z,98305.91
2019-02-15T05:07:13.571Z,98302.25
2019-02-15T05:09:42.280Z,98296.26
2019-02-15T05:12:30.042Z,98293.18
2019-02-15T05:15:17.918Z,98291.02
2019-02-15T05:18:05.958Z,98296.56
2019-02-15T05:20:53.779Z,98294.99
2019-02-15T05:23:41.638Z,98299.74
2019-02-15T05:26:29.470Z,98287.23
2019-02-15T05:29:17.241Z,98296.55
2019-02-15T05:32:05.127Z,98294.32
2019-02-15T05:34:52.990Z,98292.14
2019-02-15T05:37:40.846Z,98298.63
2019-02-15T05:43:14.939Z,98295.15
2019-02-15T05:45:43.586Z,98294.19
2019-02-15T05:48:12.267Z,98293.73
2019-02-15T05:50:40.921Z,98288.02
2019-02-15T05:56:18.281Z,98293.55
2019-02-15T05:59:06.233Z,98297.83
2019-02-15T06:01:54.199Z,98291.64
2019-02-15T06:04:41.995Z,98297.02
2019-02-15T06:07:29.869Z,98305.86
2019-02-15T06:10:17.761Z,98301.11
2019-02-15T06:13:05.709Z,98300.97
2019-02-15T06:18:41.350Z,98306.55
2019-02-15T06:21:29.192Z,98308.75
2019-02-15T06:26:52.827Z,98309.86
2019-02-15T06:29:40.646Z,98308.71
2019-02-15T06:35:21.716Z,98298.28
2019-02-15T06:38:09.583Z,98302.15
2019-02-15T06:40:57.458Z,98296.18
2019-02-15T06:43:45.244Z,98299.38
2019-02-15T06:46:33.065Z,98301.69
2019-02-15T06:49:20.877Z,98305.66
2019-02-15T06:52:08.766Z,98309.28
2019-02-15T06:54:56.579Z,98304.28
2019-02-15T06:57:44.442Z,98301.13
2019-02-15T07:00:32.272Z,98306.64
2019-02-15T07:03:19.985Z,98309.80
2019-02-15T07:06:07.946Z,98314.57
2019-02-15T07:08:55.821Z,98315.83
2019-02-15T07:11:43.535Z,98322.27
2019-02-15T07:14:31.421Z,98320.45
2019-02-15T07:17:19.107Z,98314.98
2019-02-15T07:20:07.075Z,98319.59
2019-02-15T07:22:54.941Z,98317.83
2019-02-15T07:25:42.679Z,98319.67
2019-02-15T07:28:30.520Z,98321.23
2019-02-15T07:31:18.338Z,98310.05
2019-02-15T07:34:06.212Z,98312.84
2019-02-15T07:36:34.799Z,98309.82
2019-02-15T07:41:58.435Z,98312.75
2019-02-15T07:44:26.948Z,98311.91
2019-02-15T07:47:35.387Z,98308.78
2019-02-15T07:50:43.854Z,98308.77
2019-02-15T07:53:31.738Z,98315.05
2019-02-15T07:56:19.538Z,98314.39
2019-02-15T07:59:07.446Z,98317.64
2019-02-15T08:02:01.658Z,98313.72
2019-02-15T08:04:44.882Z,98307.30
2019-02-15T08:07:32.666Z,98307.20
2019-02-15T08:10:01.241Z,98305.55
2019-02-15T08:12:49.197Z,98305.81
2019-02-15T08:15:17.790Z,98303.27
2019-02-15T08:17:46.392Z,98306.97
2019-02-15T08:20:15.052Z,98300.89
2019-02-15T08:23:02.933Z,98292.84
2019-02-15T08:25:31.487Z,98294.88
2019-02-15T08:28:00.175Z,98286.09
2019-02-15T08:30:48.059Z,98291.93
2019-02-15T08:33:16.797Z,98293.69
2019-02-15T08:36:04.591Z,98284.13
2019-02-15T08:38:52.514Z,98285.41
2019-02-15T08:41:40.348Z,98282.45
2019-02-15T08:44:09.037Z,98281.16
2019-02-15T08:46:56.892Z,98284.19
2019-02-15T08:49:25.526Z,98284.77
2019-02-15T08:52:13.384Z,98284.95
2019-02-15T08:55:01.130Z,98281.30
2019-02-15T08:57:29.771Z,98283.49
2019-02-15T08:59:58.416Z,98281.02
2019-02-15T09:02:27.117Z,98282.91
2019-02-15T09:04:55.822Z,98285.51
2019-02-15T09:07:43.631Z,98281.55
2019-02-15T09:10:32.967Z,98276.11
2019-02-15T09:13:01.601Z,98281.27
2019-02-15T09:15:49.536Z,98276.84
2019-02-15T09:18:37.401Z,98283.44
2019-02-15T09:21:25.278Z,98285.06
2019-02-15T09:24:13.122Z,98277.52
2019-02-15T09:26:41.816Z,98291.06
2019-02-15T09:29:10.483Z,98284.00
2019-02-15T09:31:39.105Z,98281.06
2019-02-15T09:34:26.997Z,98279.23
2019-02-15T09:37:14.815Z,98279.69
2019-02-15T09:40:02.683Z,98281.48
2019-02-15T09:42:31.374Z,98280.98
2019-02-15T09:45:00.011Z,98277.40
2019-02-15T09:47:48.035Z,98281.80
2019-02-15T09:53:05.794Z,98283.11
2019-02-15T09:55:34.473Z,98277.97
2019-02-15T09:58:03.177Z,98271.75
2019-02-15T10:00:50.995Z,98274.63
2019-02-15T10:03:38.866Z,98269.45
2019-02-15T10:06:26.764Z,98275.41
2019-02-15T10:08:55.343Z,98272.81
2019-02-15T10:11:43.123Z,98270.40
2019-02-15T10:14:31.086Z,98277.38
2019-02-15T10:17:18.995Z,98273.98
2019-02-15T10:20:06.875Z,98274.34
2019-02-15T10:22:35.508Z,98275.93
2019-02-15T10:25:43.992Z,98273.84
2019-02-15T10:28:12.611Z,98269.19
2019-02-15T10:31:00.425Z,98269.80
2019-02-15T10:33:29.018Z,98263.96
2019-02-15T10:35:57.636Z,98255.63
2019-02-15T10:38:45.569Z,98258.94
2019-02-15T10:41:14.360Z,98259.56
2019-02-15T10:44:02.192Z,98256.27
2019-02-15T10:46:49.984Z,98250.87
2019-02-15T10:49:37.883Z,98247.95
2019-02-15T10:52:25.740Z,98252.58
2019-02-15T10:55:13.595Z,98245.61
2019-02-15T10:57:42.289Z,98247.35
2019-02-15T11:00:50.723Z,98238.39
2019-02-15T11:03:19.416Z,98234.77
2019-02-15T11:06:07.230Z,98233.19
2019-02-15T11:08:35.855Z,98233.53
2019-02-15T11:11:04.527Z,98228.58
2019-02-15T11:13:33.282Z,98224.92
2019-02-15T11:16:21.234Z,98230.41
2019-02-15T11:18:49.990Z,98226.38
2019-02-15T11:21:18.682Z,98217.03
2019-02-15T11:23:47.312Z,98217.09
2019-02-15T11:26:24.374Z,98215.23
2019-02-15T11:28:46.403Z,98218.17
2019-02-15T11:31:16.918Z,98214.33
2019-02-15T11:33:45.477Z,98205.03
2019-02-15T11:36:33.213Z,98200.16
2019-02-15T11:39:01.890Z,98198.62
2019-02-15T11:41:49.725Z,98199.35
2019-02-15T11:44:37.525Z,98197.64
2019-02-15T11:47:25.344Z,98190.06
2019-02-15T11:50:13.285Z,98190.37
2019-02-15T11:53:01.131Z,98186.15
2019-02-15T11:55:49.056Z,98189.06
2019-02-15T11:58:36.960Z,98187.00
2019-02-15T12:03:46.826Z,98174.97
2019-02-15T12:06:15.444Z,98175.68
2019-02-15T12:08:44.130Z,98172.95
2019-02-15T12:11:12.802Z,98175.27
2019-02-15T12:13:41.501Z,98176.02
2019-02-15T12:16:29.267Z,98172.25
2019-02-15T12:18:57.943Z,98165.44
2019-02-15T12:21:45.657Z,98161.87
2019-02-15T12:24:14.273Z,98159.81
2019-02-15T12:27:02.151Z,98159.55
2019-02-15T12:29:50.054Z,98147.11
2019-02-15T12:32:37.960Z,98146.42
2019-02-15T12:35:46.381Z,98139.37
2019-02-15T12:38:15.061Z,98137.13
2019-02-15T12:41:02.777Z,98136.86
2019-02-15T12:43:31.459Z,98129.83
2019-02-15T12:46:00.122Z,98132.55
2019-02-15T12:48:28.743Z,98121.06
2019-02-15T12:50:57.439Z,98117.66
2019-02-15T12:53:26.046Z,98114.48
2019-02-15T12:55:54.716Z,98116.00
2019-02-15T12:58:23.394Z,98108.50
2019-02-15T13:01:11.099Z,98104.86
2019-02-15T13:03:59.064Z,98101.44
2019-02-15T13:06:47.031Z,98100.58
2019-02-15T13:09:15.674Z,98097.73
2019-02-15T13:12:03.501Z,98087.54
2019-02-15T13:14:32.133Z,98089.72
2019-02-15T13:17:00.767Z,98089.05
2019-02-15T13:22:03.561Z,98083.62
2019-02-15T13:24:51.505Z,98087.52
2019-02-15T13:27:20.170Z,98083.11
2019-02-15T13:29:48.832Z,98077.55
2019-02-15T13:32:17.497Z,98081.03
2019-02-15T13:34:46.164Z,98072.59
2019-02-15T13:37:33.997Z,98076.29
2019-02-15T13:40:21.851Z,98071.07
2019-02-15T13:43:09.662Z,98067.77
2019-02-15T13:45:38.296Z,98070.20
2019-02-15T13:48:06.990Z,98061.61
2019-02-15T13:50:35.557Z,98060.25
2019-02-15T13:53:04.228Z,98057.23
2019-02-15T13:55:32.917Z,98056.32
2019-02-15T14:00:49.193Z,98059.85
2019-02-15T14:03:37.103Z,98058.54
2019-02-15T14:06:05.802Z,98053.61
2019-02-15T14:08:34.427Z,98051.64
2019-02-15T14:11:03.106Z,98047.55
2019-02-15T14:13:31.697Z,98046.59
2019-02-15T14:16:00.406Z,98049.36
2019-02-15T14:18:29.045Z,98052.18
2019-02-15T14:20:57.723Z,98046.05
2019-02-15T14:23:26.400Z,98038.02
2019-02-15T14:25:54.986Z,98038.21
2019-02-15T14:28:23.636Z,98045.20
2019-02-15T14:31:11.432Z,98040.95
2019-02-15T14:33:40.083Z,98039.03
2019-02-15T14:36:08.797Z,98035.95
2019-02-15T14:41:16.636Z,98033.73
2019-02-15T14:43:45.238Z,98033.55
2019-02-15T14:46:13.888Z,98027.67
2019-02-15T14:48:42.581Z,98025.69
2019-02-15T14:51:30.338Z,98030.72
2019-02-15T14:53:59.035Z,98030.22
2019-02-15T14:56:27.707Z,98030.81
2019-02-15T14:59:15.706Z,98027.53
2019-02-15T15:02:03.529Z,98026.13
2019-02-15T15:04:32.137Z,98023.55
2019-02-15T15:07:00.823Z,98017.34
2019-02-15T15:09:48.660Z,98013.03
2019-02-15T15:12:36.535Z,98019.42
2019-02-15T15:15:45.006Z,98013.06
2019-02-15T15:18:13.721Z,98009.56
2019-02-15T15:20:42.337Z,98012.73
2019-02-15T15:23:10.952Z,98003.36
2019-02-15T15:25:39.599Z,98002.58
2019-02-15T15:28:08.268Z,98005.55
2019-02-15T15:30:36.958Z,98008.00
2019-02-15T15:33:05.795Z,98007.12
2019-02-15T15:35:34.426Z,98008.82
2019-02-15T15:38:03.160Z,98002.50
2019-02-15T15:40:31.767Z,98002.36
2019-02-15T15:43:00.394Z,98000.70
2019-02-15T15:45:29.081Z,98001.69
2019-02-15T15:47:57.697Z,98006.96
2019-02-15T15:50:26.274Z,97997.20
2019-02-15T15:55:49.738Z,97999.64
2019-02-15T15:58:18.391Z,98001.95
2019-02-15T16:00:46.965Z,97996.45
2019-02-15T16:03:15.661Z,98000.17
2019-02-15T16:05:44.346Z,97998.59
2019-02-15T16:08:12.988Z,98000.66
2019-02-15T16:10:41.676Z,97998.19
2019-02-15T16:13:29.491Z,98001.50
2019-02-15T16:15:58.129Z,97994.41
2019-02-15T16:18:34.144Z,97995.25
2019-02-15T16:21:16.340Z,97999.45
2019-02-15T16:23:44.979Z,97990.83
2019-02-15T16:26:13.692Z,97995.18
2019-02-15T16:28:42.334Z,97987.41
2019-02-15T16:31:11.024Z,97997.37
2019-02-15T16:33:39.697Z,97994.43
2019-02-15T16:36:08.275Z,97992.09
2019-02-15T16:39:16.742Z,97999.61
2019-02-15T16:42:04.826Z,97995.53
2019-02-15T16:44:35.292Z,97996.34
2019-02-15T16:47:03.916Z,97998.73
2019-02-15T16:52:06.549Z,98008.89
2019-02-15T16:54:54.495Z,98008.78
2019-02-15T16:57:42.455Z,98008.30
2019-02-15T17:00:50.998Z,98006.46
2019-02-15T17:03:38.893Z,98011.16
2019-02-15T17:06:07.591Z,98013.75
2019-02-15T17:08:36.272Z,98006.78
2019-02-15T17:11:12.250Z,98006.30
2019-02-15T17:13:40.926Z,98011.77
2019-02-15T17:18:57.113Z,98005.97
2019-02-15T17:21:25.862Z,98003.44
2019-02-15T17:23:54.531Z,98002.36
2019-02-15T17:26:42.417Z,98007.48
2019-02-15T17:29:11.108Z,98007.55
2019-02-15T17:31:39.781Z,98004.63
2019-02-15T17:34:08.422Z,98007.72
2019-02-15T17:36:56.309Z,98002.67
2019-02-15T17:39:24.928Z,97997.63
2019-02-15T17:41:53.567Z,97997.47
2019-02-15T17:44:41.493Z,98001.51
2019-02-15T17:47:10.208Z,97995.39
2019-02-15T17:52:13.432Z,97993.99
2019-02-15T17:55:01.428Z,97999.72
2019-02-15T17:57:30.096Z,97995.83
2019-02-15T17:59:58.802Z,97995.73
2019-02-15T18:02:27.570Z,97992.34
2019-02-15T18:04:56.403Z,97995.63
2019-02-15T18:07:44.279Z,97996.13
2019-02-15T18:10:32.121Z,97988.58
2019-02-15T18:13:00.748Z,97990.17
2019-02-15T18:15:29.437Z,97994.86
2019-02-15T18:18:17.152Z,97983.94
2019-02-15T18:21:05.038Z,97981.80
2019-02-15T18:23:33.560Z,97987.64
2019-02-15T18:26:02.253Z,97980.17
2019-02-15T18:28:30.884Z,97984.02
2019-02-15T18:30:59.560Z,97981.03
2019-02-15T18:33:28.131Z,97979.00
2019-02-15T18:35:56.811Z,97976.77
2019-02-15T18:38:25.806Z,97977.08
2019-02-15T18:40:54.506Z,97977.98
2019-02-15T18:43:23.179Z,97979.30
2019-02-15T18:45:51.817Z,97977.36
2019-02-15T18:48:20.499Z,97978.42
2019-02-15T18:50:49.194Z,97974.47
2019-02-15T18:53:17.885Z,97973.37
2019-02-15T18:55:46.644Z,97975.12
2019-02-15T18:58:34.399Z,97974.19
2019-02-15T19:01:22.438Z,97975.05
2019-02-15T19:03:51.079Z,97968.63
2019-02-15T19:06:19.862Z,97969.06
2019-02-15T19:08:48.561Z,97968.64
2019-02-15T19:11:17.265Z,97970.26
2019-02-15T19:13:45.954Z,97971.44
2019-02-15T19:16:14.667Z,97968.76
2019-02-15T19:18:43.458Z,97972.95
2019-02-15T19:21:12.131Z,97976.84
2019-02-15T19:23:40.787Z,97970.42
2019-02-15T19:26:28.665Z,97970.70
2019-02-15T19:29:16.499Z,97966.91
2019-02-15T19:32:04.399Z,97959.78
2019-02-15T19:34:33.073Z,97961.41
2019-02-15T19:37:22.248Z,97956.66
2019-02-15T19:39:51.411Z,97961.83
2019-02-15T19:42:20.063Z,97954.86
2019-02-15T19:45:07.894Z,97958.72
2019-02-15T19:47:36.611Z,97962.16
2019-02-15T19:50:45.103Z,97957.84
2019-02-15T19:53:32.881Z,97959.73
2019-02-15T19:56:01.481Z,97957.67
2019-02-15T19:58:49.426Z,97964.06
2019-02-15T20:01:18.199Z,97967.62
2019-02-15T20:04:06.132Z,97960.53
2019-02-15T20:06:34.747Z,97962.39
2019-02-15T20:09:03.447Z,97966.64
2019-02-15T20:11:51.224Z,97961.48
2019-02-15T20:14:19.897Z,97960.32
2019-02-15T20:17:07.769Z,97956.97
2019-02-15T20:19:36.332Z,97951.68
2019-02-15T20:22:24.288Z,97954.42
2019-02-15T20:24:53.011Z,97946.58
2019-02-15T20:27:21.666Z,97948.94
2019-02-15T20:29:50.427Z,97945.00
2019-02-15T20:32:38.325Z,97938.22
2019-02-15T20:35:47.047Z,97933.48
2019-02-15T20:38:15.869Z,97935.73
2019-02-15T20:41:03.741Z,97932.41
2019-02-15T20:43:51.761Z,97933.75
2019-02-15T20:46:20.425Z,97929.98
2019-02-15T20:48:49.210Z,97931.78
2019-02-15T20:51:17.990Z,97931.13
2019-02-15T20:53:46.639Z,97933.81
2019-02-15T20:56:15.396Z,97929.53
2019-02-15T20:58:44.059Z,97930.20
2019-02-15T21:01:12.830Z,97923.24
2019-02-15T21:03:41.484Z,97912.28
2019-02-15T21:06:10.242Z,97914.59
2019-02-15T21:08:38.930Z,97914.84
2019-02-15T21:11:07.703Z,97910.47
2019-02-15T21:13:36.327Z,97908.42
2019-02-15T21:16:05.010Z,97908.36
2019-02-15T21:18:52.972Z,97902.38
2019-02-15T21:21:40.827Z,97906.55
2019-02-15T21:24:49.312Z,97903.81
2019-02-15T21:27:17.961Z,97900.67
2019-02-15T21:29:46.724Z,97899.73
2019-02-15T21:32:15.436Z,97899.58
2019-02-15T21:34:44.117Z,97902.83
2019-02-15T21:37:32.120Z,97903.55
2019-02-15T21:40:20.004Z,97901.12
2019-02-15T21:42:48.703Z,97897.30
2019-02-15T21:45:17.366Z,97892.65
2019-02-15T21:48:05.368Z,97893.02
2019-02-15T21:50:53.115Z,97883.48
2019-02-15T21:53:41.062Z,97888.67
2019-02-15T21:56:09.708Z,97899.59
2019-02-15T21:58:38.407Z,97895.27
2019-02-15T22:01:26.284Z,97888.23
2019-02-15T22:04:14.260Z,97889.48
2019-02-15T22:06:42.964Z,97886.20
2019-02-15T22:09:11.668Z,97885.78
2019-02-15T22:11:59.538Z,97892.13
2019-02-15T22:14:28.189Z,97882.95
2019-02-15T22:20:13.060Z,97875.70
2019-02-15T22:22:41.572Z,97878.14
2019-02-15T22:25:29.823Z,97884.92
2019-02-15T22:27:58.578Z,97882.37
2019-02-15T22:31:07.078Z,97880.69
2019-02-15T22:33:57.610Z,97879.42
2019-02-15T22:36:48.913Z,97880.73
2019-02-15T22:42:52.627Z,97870.59
2019-02-15T22:45:40.904Z,97873.15
2019-02-15T22:51:18.096Z,97875.29
2019-02-15T22:53:46.758Z,97875.84
2019-02-15T22:56:15.400Z,97868.84
2019-02-15T22:59:03.434Z,97878.59
2019-02-15T23:01:32.181Z,97878.56
2019-02-15T23:04:20.133Z,97874.17
2019-02-15T23:06:48.896Z,97868.91
2019-02-15T23:09:36.778Z,97864.70
2019-02-15T23:12:05.454Z,97864.44
2019-02-15T23:14:33.971Z,97870.70
2019-02-15T23:17:02.596Z,97864.38
2019-02-15T23:19:31.278Z,97865.66
2019-02-15T23:21:59.967Z,97864.47
2019-02-15T23:24:28.604Z,97867.14
2019-02-15T23:26:57.300Z,97866.51
2019-02-15T23:29:25.984Z,97863.98
2019-02-15T23:31:54.645Z,97861.17
2019-02-15T23:34:23.298Z,97860.28
2019-02-15T23:36:51.980Z,97855.35
2019-02-15T23:39:20.546Z,97852.25
2019-02-15T23:41:49.227Z,97850.77
2019-02-15T23:44:17.827Z,97849.97
2019-02-15T23:46:46.488Z,97853.77
2019-02-15T23:49:34.410Z,97856.63
2019-02-15T23:52:22.242Z,97852.95
2019-02-15T23:55:10.185Z,97852.13
2019-02-15T23:57:38.863Z,97856.09
